Huvudsida
METAR-TAF:

METAR-TAF

Flygplatser :

Tuzlas internationella flygplats

Tuzla, Bosnien och Hercegovina

latitud: 44-33N, longitud: 018-42E, höjd: 306 m

Aktuellt väderrapport

Denna rapport gjordes för 16 minuter sedan, klockan 19:30 UTC
Vind 10 kt från nordväst
Temperatur 5°C
Fuktighet 70%
Tryck 1020 hPa
Sikt 10 km eller mer
Inga moln under 1 500 m eller inga cumulonimbus

METAR: LQTZ 281930Z 32010KT CAVOK 05/00 Q1020

Tid: 20:46 (19:46 UTC)

Väderprognos

Denna rapport gjordes för 2 timmar och 46 minuter sedan, klockan 17:00 UTC
Prognos gäller från 28 kl. 18 UTC till 29 kl. 18 UTC
Vind 10 kt från väst/nordväst
Sikt 10 km eller mer
Brutna moln på en höjd av 4000 ft
Blir
från 28 kl. 21 UTC till 28 kl. 23 UTC
Vind 5 kt från syd/sydost
Sannolikhet 30% :
Temporärt
från 29 kl. 05 UTC till 29 kl. 07 UTC
Sikt: 3000 m
fuktdis

TAF: LQTZ 281700Z 2818/2918 30010KT 9999 BKN040 TX13/2914Z TNM05/2905Z BECMG 2821/2823 16005KT PROB30 TEMPO 2905/2907 3000 BR

Aktuella väderrapporter och prognoser från 4000 flygplatser (METAR- och TAF-rapporter).

De tillgängliga stationerna syns som gula och röda prickar på kartan.

För musen över prickarna för att se namnen på stationerna.

Klicka sedan för att få väderrapporter och prognoser.

För att ändra kartan: Klicka på de gröna knapparna med ett svart kors på för att zooma in; den gröna knappen med ett streck på för att zooma ut; eller på de gröna pilarna för angränsande kartor.


METAR-TAF: